Fosters, AL

11:44 AM CST on November 26, 2014 (GMT -0600)
Romulus Rd. | Change Station
CLOSE
Current Station
Personal Weather Station
Location: Coker, AL
Elevation: 225 ft
Nearby Weather Stations

Elev 225 ft 33.24 °N, 87.69 °W | Updated 59 seconds ago

Clear
Clear
53.0 °F
Feels Like 53.0 °F
N
0.0
Wind Variable Wind from East

Today
High -- | Low -- °F
--% Chance of Precip.
Yesterday
High -- | Low -- °F
Precip. -- in
6:31 AM 4:44 PM
Waxing Crescent, 21% visible
Pressure 30.22 in
Visibility 10.0 miles
Clouds Clear
Dew Point 28 °F
Humidity 39%
Rainfall 0.00 in
Snow Depth Not available.
UV 2.4 out of 12
Pollen .50 out of 12
Air Quality Not available.
Flu Activity Not available.
METAR KTCL 261653Z 22004KT 10SM CLR 10/M03 A3022 RMK AO2 SLP231 T01001033

More Conditions Fewer Conditions

Pressure 30.22 in
Visibility 10.0 miles
Clouds Clear
Dew Point 28 °F
Humidity 39%
Rainfall 0.00 in
Snow Depth Not available.
UV 2.4 out of 12
Pollen .50 out of 12
Air Quality Not available.
Flu Activity Not available.
METAR KTCL 261653Z 22004KT 10SM CLR 10/M03 A3022 RMK AO2 SLP231 T01001033

More Conditions Fewer Conditions

10-Day Weather Forecast

Almanac

Astronomy

Nov. 26, 2014 Rise Set
Actual Time
Civil Twilight
Nautical Twilight
Astronomical Twilight
Moon
Length of Visible Light
Length of Day
Tomorrow will be .
, % of the Moon is Illuminated

Today's Extremes

State Highs State Lows

Community

WunderPhotos

Upload Photos

1,773,808 photos uploaded!

WunderBlogs® & News

Nearby

Air Quality

  Air Quality AQ Index Pollutant
Not available.

Snow Depth

Station Depth Elevation

Earthquake Activity

City Distance Mag. Time & Date
Minimum magnitude displayed is 2.5.

Coastal Water Temperatures

Place Temperature

Nearby Weather Stations